Time;durP1;ratioP1;P1;durP2;ratioP2;P2;SDS_P1;SDS_P2;PMS_P1;PMS_P2;Temp;Humidity;BMP_temperature;BMP_pressure;BME280_temperature;BME280_humidity;BME280_pressure;Samples;Min_cycle;Max_cycle;Signal;HPM_P1;HPM_P2
2021/09/07 00:01:23;;;;;;;11.50;6.57;;;24.60;99.90;;;;;;5074181;28;20476;-65
2021/09/07 00:03:49;;;;;;;7.60;6.75;;;24.60;99.90;;;;;;5074008;28;20379;-65
2021/09/07 00:06:17;;;;;;;7.28;6.32;;;24.60;99.90;;;;;;5074226;28;20103;-65
2021/09/07 00:08:44;;;;;;;7.05;6.18;;;24.60;99.90;;;;;;5083023;28;20060;-65
2021/09/07 00:11:09;;;;;;;7.70;6.63;;;24.60;99.90;;;;;;5074510;28;20028;-65
2021/09/07 00:13:35;;;;;;;7.90;6.97;;;24.60;99.90;;;;;;5086356;28;20055;-65
2021/09/07 00:16:01;;;;;;;8.63;6.63;;;24.60;99.90;;;;;;5094106;28;20027;-65
2021/09/07 00:18:28;;;;;;;7.65;6.70;;;24.60;99.90;;;;;;5092336;28;20032;-65
2021/09/07 00:20:53;;;;;;;7.25;6.50;;;24.60;99.90;;;;;;5093941;28;20436;-65
2021/09/07 00:23:19;;;;;;;7.25;6.25;;;24.60;99.90;;;;;;5093631;28;20103;-65
2021/09/07 00:25:44;;;;;;;7.60;6.60;;;24.60;99.90;;;;;;5076428;28;20103;-65
2021/09/07 00:28:10;;;;;;;7.65;6.85;;;24.60;99.90;;;;;;5073989;28;20032;-65
2021/09/07 00:30:36;;;;;;;7.95;6.65;;;24.60;99.90;;;;;;5073951;28;20219;-65
2021/09/07 00:33:01;;;;;;;7.93;6.93;;;24.60;99.90;;;;;;5073362;28;20025;-65
2021/09/07 00:35:27;;;;;;;7.80;7.00;;;24.60;99.90;;;;;;5073690;28;20025;-65
2021/09/07 00:37:53;;;;;;;8.32;7.03;;;24.50;99.90;;;;;;5073332;28;20039;-65
2021/09/07 00:40:18;;;;;;;15.38;7.28;;;24.50;99.90;;;;;;5073514;28;20118;-65
2021/09/07 00:42:44;;;;;;;7.43;6.53;;;24.50;99.90;;;;;;5074275;28;20036;-65
2021/09/07 00:45:12;;;;;;;6.95;6.25;;;24.50;99.90;;;;;;5073397;28;20099;-65
2021/09/07 00:47:39;;;;;;;7.63;6.65;;;24.60;99.90;;;;;;5073644;28;20107;-65
2021/09/07 00:50:05;;;;;;;7.80;6.85;;;24.60;99.90;;;;;;5071859;28;20068;-65
2021/09/07 00:52:31;;;;;;;7.38;6.57;;;24.50;99.90;;;;;;5073224;28;20043;-65
2021/09/07 00:54:58;;;;;;;8.20;7.13;;;24.50;99.90;;;;;;5073679;28;20086;-65
2021/09/07 00:57:25;;;;;;;8.02;7.22;;;24.50;99.90;;;;;;5073799;28;20539;-65
2021/09/07 00:59:53;;;;;;;7.85;6.90;;;24.50;99.90;;;;;;5083366;28;20063;-66
2021/09/07 01:02:19;;;;;;;8.63;6.90;;;24.50;99.90;;;;;;5085632;28;20029;-66
2021/09/07 01:04:45;;;;;;;8.35;7.07;;;24.50;99.90;;;;;;5072786;28;20028;-65
2021/09/07 01:07:11;;;;;;;8.68;6.88;;;24.50;99.90;;;;;;5074251;28;20074;-65
2021/09/07 01:09:38;;;;;;;7.47;6.68;;;24.50;99.90;;;;;;5093841;28;20024;-65
2021/09/07 01:12:05;;;;;;;7.63;6.82;;;24.50;99.90;;;;;;5091664;28;20032;-65
2021/09/07 01:14:32;;;;;;;10.05;6.85;;;24.50;99.90;;;;;;5092926;28;20479;-64
2021/09/07 01:16:59;;;;;;;7.65;6.88;;;24.50;99.90;;;;;;5085546;28;20460;-65
2021/09/07 01:19:29;;;;;;;7.90;6.35;;;24.50;99.90;;;;;;5072649;28;20433;-65
2021/09/07 01:21:55;;;;;;;7.95;7.15;;;24.40;99.90;;;;;;5072761;28;20368;-65
2021/09/07 01:24:25;;;;;;;7.18;6.47;;;24.40;99.90;;;;;;5077682;28;20024;-65
2021/09/07 01:26:52;;;;;;;7.63;6.82;;;24.40;99.90;;;;;;5092733;28;20031;-65
2021/09/07 01:29:18;;;;;;;7.78;6.70;;;24.40;99.90;;;;;;5091205;28;20387;-65
2021/09/07 01:31:44;;;;;;;8.00;6.82;;;24.40;99.90;;;;;;5092025;28;20032;-65
2021/09/07 01:34:17;;;;;;;7.20;6.50;;;24.40;99.90;;;;;;5092488;28;20084;-65
2021/09/07 01:36:43;;;;;;;;;;;24.40;99.90;;;;;;5093012;28;20111;-66
2021/09/07 01:39:08;;;;;;;7.88;6.82;;;24.40;99.90;;;;;;5092590;28;20398;-65
2021/09/07 01:41:34;;;;;;;7.25;6.45;;;24.40;99.90;;;;;;5078171;28;20104;-65
2021/09/07 01:44:01;;;;;;;8.32;7.18;;;24.40;99.90;;;;;;5092078;28;20028;-65
2021/09/07 01:46:26;;;;;;;7.88;6.47;;;24.40;99.90;;;;;;5072921;28;20496;-65
2021/09/07 01:48:52;;;;;;;7.57;6.78;;;24.40;99.90;;;;;;5082067;28;20035;-66
2021/09/07 01:51:18;;;;;;;7.65;6.43;;;24.40;99.90;;;;;;5092221;28;20032;-65
2021/09/07 01:53:43;;;;;;;8.00;6.72;;;24.40;99.90;;;;;;5091167;28;20361;-64
2021/09/07 01:56:09;;;;;;;6.82;6.13;;;24.40;99.90;;;;;;5084651;28;20426;-65
2021/09/07 01:58:35;;;;;;;8.40;7.07;;;24.40;99.90;;;;;;5088290;28;20029;-65
2021/09/07 02:01:00;;;;;;;7.97;6.65;;;24.40;99.90;;;;;;5089876;28;20024;-65
2021/09/07 02:03:26;;;;;;;6.93;6.22;;;24.40;99.90;;;;;;5090453;28;20035;-65
2021/09/07 02:05:51;;;;;;;7.93;6.90;;;24.40;99.90;;;;;;5080941;28;20051;-64
2021/09/07 02:08:17;;;;;;;8.45;6.38;;;24.40;99.90;;;;;;5071821;28;20085;-65
2021/09/07 02:10:43;;;;;;;7.13;6.38;;;24.30;99.90;;;;;;5071592;28;20454;-65
2021/09/07 02:13:08;;;;;;;7.38;6.47;;;24.30;99.90;;;;;;5071999;28;20464;-65
2021/09/07 02:15:34;;;;;;;8.65;6.38;;;24.30;99.90;;;;;;5071763;28;20024;-64
2021/09/07 02:18:00;;;;;;;7.85;6.68;;;24.30;99.90;;;;;;5071439;28;20024;-65
2021/09/07 02:20:25;;;;;;;7.47;6.57;;;24.30;99.90;;;;;;5071579;28;20111;-65
2021/09/07 02:22:51;;;;;;;9.68;6.60;;;24.30;99.90;;;;;;5075870;28;20028;-65
2021/09/07 02:25:17;;;;;;;8.32;6.88;;;24.30;99.90;;;;;;5082621;28;20027;-65
2021/09/07 02:27:42;;;;;;;7.63;6.53;;;24.30;99.90;;;;;;5091195;28;20028;-64
2021/09/07 02:30:09;;;;;;;10.18;6.90;;;24.30;99.90;;;;;;5090763;28;20032;-64
2021/09/07 02:32:34;;;;;;;9.10;6.68;;;24.30;99.90;;;;;;5091187;28;20039;-65
2021/09/07 02:35:00;;;;;;;6.88;5.90;;;24.30;99.90;;;;;;5089441;28;20032;-65
2021/09/07 02:37:26;;;;;;;7.55;6.53;;;24.20;99.90;;;;;;5091452;28;20028;-64
2021/09/07 02:39:51;;;;;;;7.57;6.55;;;24.30;99.90;;;;;;5091517;28;20030;-64
2021/09/07 02:42:17;;;;;;;7.60;6.55;;;24.30;99.90;;;;;;5091268;28;20368;-65
2021/09/07 02:44:43;;;;;;;7.38;6.68;;;24.20;99.90;;;;;;5089383;28;20588;-64
2021/09/07 02:47:08;;;;;;;7.20;6.13;;;24.20;99.90;;;;;;5091595;28;20107;-65
2021/09/07 02:49:34;;;;;;;7.75;6.32;;;24.20;99.90;;;;;;5091172;28;20028;-64
2021/09/07 02:52:00;;;;;;;7.68;6.82;;;24.20;99.90;;;;;;5091093;28;20055;-65
2021/09/07 02:54:25;;;;;;;8.43;6.45;;;24.20;99.90;;;;;;5076914;28;20098;-64
2021/09/07 02:56:51;;;;;;;11.40;6.70;;;24.20;99.90;;;;;;5075997;28;20099;-64
2021/09/07 02:59:17;;;;;;;7.63;6.82;;;24.20;99.90;;;;;;5069851;28;20021;-64
2021/09/07 03:01:43;;;;;;;8.13;6.95;;;24.20;99.90;;;;;;5070685;28;20028;-64
2021/09/07 03:04:08;;;;;;;7.15;6.25;;;24.20;99.90;;;;;;5071504;28;20047;-64
2021/09/07 03:06:34;;;;;;;6.82;6.07;;;24.20;99.90;;;;;;5071130;28;20020;-65
2021/09/07 03:09:00;;;;;;;8.32;6.80;;;24.20;99.90;;;;;;5073973;28;20044;-64
2021/09/07 03:11:26;;;;;;;9.00;7.25;;;24.20;99.90;;;;;;5075187;28;20044;-65
2021/09/07 03:13:52;;;;;;;7.30;6.25;;;24.20;99.90;;;;;;5079759;28;20049;-64
2021/09/07 03:16:18;;;;;;;7.63;6.60;;;24.20;99.90;;;;;;5095648;28;20028;-64
2021/09/07 03:18:43;;;;;;;7.10;6.40;;;24.20;99.90;;;;;;5095190;28;20391;-65
2021/09/07 03:21:09;;;;;;;8.60;6.55;;;24.20;99.90;;;;;;5095553;28;20035;-64
2021/09/07 03:23:35;;;;;;;7.13;6.43;;;24.10;99.90;;;;;;5095040;28;20024;-64
2021/09/07 03:26:00;;;;;;;7.80;6.25;;;24.10;99.90;;;;;;5080036;28;20028;-65
2021/09/07 03:28:26;;;;;;;8.27;7.40;;;24.10;99.90;;;;;;5078708;28;20091;-65
2021/09/07 03:30:51;;;;;;;7.18;6.47;;;24.10;99.90;;;;;;5094904;28;20456;-64
2021/09/07 03:33:17;;;;;;;7.13;6.43;;;24.10;99.90;;;;;;5093847;28;20020;-65
2021/09/07 03:35:44;;;;;;;7.90;6.75;;;24.10;99.90;;;;;;5094745;28;20054;-65
2021/09/07 03:38:09;;;;;;;7.60;6.82;;;24.10;99.90;;;;;;5095463;28;20050;-65
2021/09/07 03:40:35;;;;;;;9.10;7.50;;;24.10;99.90;;;;;;5094923;28;20391;-65
2021/09/07 03:43:00;;;;;;;7.35;6.45;;;24.10;99.90;;;;;;5094563;28;20536;-64
2021/09/07 03:45:26;;;;;;;8.30;6.70;;;24.10;99.90;;;;;;5093165;28;20024;-64
2021/09/07 03:47:52;;;;;;;8.05;6.70;;;24.10;99.90;;;;;;5094181;28;20059;-65
2021/09/07 03:50:18;;;;;;;8.68;6.53;;;24.10;99.90;;;;;;5094305;28;20104;-65
2021/09/07 03:52:44;;;;;;;7.70;6.88;;;24.10;99.90;;;;;;5089548;28;20029;-64
2021/09/07 03:55:10;;;;;;;8.48;7.28;;;24.10;99.90;;;;;;5081295;28;20464;-65
2021/09/07 03:57:36;;;;;;;8.20;6.57;;;24.10;99.90;;;;;;5093889;28;20070;-64
2021/09/07 04:00:03;;;;;;;8.65;7.00;;;24.10;99.90;;;;;;5094386;28;20020;-65
2021/09/07 04:02:29;;;;;;;7.97;6.88;;;24.00;99.90;;;;;;5094428;28;20032;-64
2021/09/07 04:04:54;;;;;;;8.32;6.60;;;24.00;99.90;;;;;;5074683;28;20093;-64
2021/09/07 04:07:20;;;;;;;7.50;6.70;;;24.00;99.90;;;;;;5074347;28;20376;-65
2021/09/07 04:09:46;;;;;;;8.75;6.80;;;24.00;99.90;;;;;;5073998;28;20024;-65
2021/09/07 04:12:12;;;;;;;8.60;6.15;;;24.00;99.90;;;;;;5074965;28;20066;-66
2021/09/07 04:14:38;;;;;;;7.20;6.50;;;24.00;99.90;;;;;;5073365;28;20025;-66
2021/09/07 04:17:05;;;;;;;8.50;6.85;;;24.00;99.90;;;;;;5073776;28;20116;-64
2021/09/07 04:19:31;;;;;;;8.95;6.47;;;24.00;99.90;;;;;;5071860;28;20024;-65
2021/09/07 04:21:57;;;;;;;7.72;6.75;;;24.00;99.90;;;;;;5076239;28;20052;-65
2021/09/07 04:24:23;;;;;;;8.23;6.50;;;24.00;99.90;;;;;;5094250;28;20059;-65
2021/09/07 04:26:49;;;;;;;8.25;6.90;;;23.90;99.90;;;;;;5091590;28;20035;-64
2021/09/07 04:29:14;;;;;;;7.63;6.70;;;24.00;99.90;;;;;;5073806;28;20016;-64
2021/09/07 04:31:42;;;;;;;8.05;6.93;;;23.90;99.90;;;;;;5073357;28;20040;-64
2021/09/07 04:34:08;;;;;;;6.85;6.15;;;23.90;99.90;;;;;;5074140;28;20329;-64
2021/09/07 04:36:33;;;;;;;7.20;6.43;;;23.90;99.90;;;;;;5073830;28;20028;-64
2021/09/07 04:38:59;;;;;;;6.72;6.03;;;23.90;99.90;;;;;;5089436;28;20413;-65
2021/09/07 04:41:24;;;;;;;7.70;6.13;;;23.90;99.90;;;;;;5074013;28;20035;-65
2021/09/07 04:43:50;;;;;;;8.73;6.60;;;23.90;99.90;;;;;;5074309;28;20031;-65
2021/09/07 04:46:17;;;;;;;7.25;6.43;;;23.90;99.90;;;;;;5073517;28;20028;-65
2021/09/07 04:48:43;;;;;;;8.55;6.88;;;23.90;99.90;;;;;;5073173;28;20025;-64
2021/09/07 04:51:08;;;;;;;7.82;6.60;;;23.90;99.90;;;;;;5073365;28;20442;-65
2021/09/07 04:53:34;;;;;;;8.30;5.80;;;23.90;99.90;;;;;;5073209;28;20025;-65
2021/09/07 04:56:00;;;;;;;7.78;6.38;;;23.90;99.90;;;;;;5074055;28;20047;-65
2021/09/07 04:58:26;;;;;;;9.65;6.40;;;23.90;99.90;;;;;;5080625;28;20028;-64
2021/09/07 05:00:51;;;;;;;9.13;6.30;;;23.80;99.90;;;;;;5084450;28;20024;-65
2021/09/07 05:03:17;;;;;;;5.93;5.32;;;23.80;99.90;;;;;;5073422;28;20430;-65
2021/09/07 05:05:42;;;;;;;7.38;6.25;;;23.80;99.90;;;;;;5072993;28;20059;-65
2021/09/07 05:08:08;;;;;;;8.10;6.72;;;23.80;99.90;;;;;;5085023;28;20030;-65
2021/09/07 05:10:33;;;;;;;8.15;6.53;;;23.80;99.90;;;;;;5091987;28;20089;-65
2021/09/07 05:12:59;;;;;;;7.18;6.47;;;23.80;99.90;;;;;;5093123;28;20347;-64
2021/09/07 05:15:25;;;;;;;7.82;6.70;;;23.80;99.90;;;;;;5093168;28;20047;-65
2021/09/07 05:17:50;;;;;;;7.38;6.30;;;23.80;99.90;;;;;;5082403;28;20041;-65
2021/09/07 05:20:16;;;;;;;7.85;6.72;;;23.80;99.90;;;;;;5076290;28;20020;-65
2021/09/07 05:22:42;;;;;;;7.93;6.93;;;23.80;99.90;;;;;;5091144;28;20032;-65
2021/09/07 05:25:08;;;;;;;10.57;6.40;;;23.80;99.90;;;;;;5091594;28;20046;-65
2021/09/07 05:27:35;;;;;;;6.78;6.07;;;23.80;99.90;;;;;;5093004;28;20051;-65
2021/09/07 05:30:03;;;;;;;6.95;6.25;;;23.80;99.90;;;;;;5086432;28;20181;-65
2021/09/07 05:32:28;;;;;;;7.45;6.47;;;23.80;99.90;;;;;;5071873;28;20093;-65
2021/09/07 05:34:54;;;;;;;7.55;6.20;;;23.80;99.90;;;;;;5072333;28;20091;-65
2021/09/07 05:37:20;;;;;;;6.85;6.10;;;23.80;99.90;;;;;;5076057;28;20111;-66
2021/09/07 05:39:45;;;;;;;8.43;6.63;;;23.70;99.90;;;;;;5086656;28;20024;-65
2021/09/07 05:42:11;;;;;;;10.05;6.38;;;23.70;99.90;;;;;;5072699;28;20550;-65
2021/09/07 05:44:36;;;;;;;11.73;6.38;;;23.70;99.90;;;;;;5072690;28;20074;-65
2021/09/07 05:47:03;;;;;;;7.53;6.10;;;23.70;99.90;;;;;;5075258;28;20024;-64
2021/09/07 05:49:29;;;;;;;7.95;6.53;;;23.70;99.90;;;;;;5092416;28;20090;-65
2021/09/07 05:51:54;;;;;;;15.00;6.32;;;23.70;99.90;;;;;;5091815;28;20059;-66
2021/09/07 05:54:20;;;;;;;7.82;6.45;;;23.70;99.90;;;;;;5084720;28;20024;-65
2021/09/07 05:56:45;;;;;;;11.45;6.07;;;23.70;99.90;;;;;;5081093;28;20050;-63
2021/09/07 05:59:12;;;;;;;7.40;6.43;;;23.70;99.90;;;;;;5087233;28;20108;-64
2021/09/07 06:01:38;;;;;;;6.95;6.20;;;23.70;99.90;;;;;;5072048;28;20039;-63
2021/09/07 06:04:04;;;;;;;14.85;10.02;;;23.70;99.90;;;;;;5080786;28;20111;-64
2021/09/07 06:06:29;;;;;;;16.02;10.63;;;23.70;99.90;;;;;;5092302;28;20893;-67
2021/09/07 06:08:56;;;;;;;17.58;12.57;;;23.60;99.90;;;;;;5091958;28;20059;-67
2021/09/07 06:11:21;;;;;;;16.65;13.85;;;23.50;99.90;;;;;;5092113;28;20028;-67
2021/09/07 06:13:47;;;;;;;20.45;15.13;;;23.40;99.90;;;;;;5081734;28;20060;-67
2021/09/07 06:16:13;;;;;;;19.67;14.63;;;23.30;99.90;;;;;;5071833;28;20020;-67
2021/09/07 06:18:38;;;;;;;20.80;16.55;;;23.30;99.90;;;;;;5072071;28;20387;-66
2021/09/07 06:21:04;;;;;;;22.33;17.85;;;23.30;99.90;;;;;;5071889;28;20016;-66
2021/09/07 06:23:30;;;;;;;21.52;16.92;;;23.20;99.90;;;;;;5071629;28;20031;-65
2021/09/07 06:25:58;;;;;;;24.25;17.45;;;23.10;99.90;;;;;;5071611;28;20028;-65
2021/09/07 06:28:24;;;;;;;22.65;16.23;;;23.00;99.90;;;;;;5071628;28;20479;-66
2021/09/07 06:30:50;;;;;;;25.02;17.63;;;22.90;99.90;;;;;;5071339;28;20035;-65
2021/09/07 06:33:16;;;;;;;23.00;17.30;;;22.90;99.90;;;;;;5071792;28;20103;-66
2021/09/07 06:35:41;;;;;;;20.70;16.58;;;22.90;99.90;;;;;;5071485;28;20457;-66
2021/09/07 06:38:07;;;;;;;21.90;16.65;;;22.80;99.90;;;;;;5072880;28;20056;-65
2021/09/07 06:40:33;;;;;;;21.15;16.80;;;22.80;99.90;;;;;;5071490;28;20476;-66
2021/09/07 06:42:58;;;;;;;23.05;16.55;;;22.70;99.90;;;;;;5072572;28;20107;-65
2021/09/07 06:45:24;;;;;;;22.27;17.23;;;22.70;99.90;;;;;;5091838;28;20472;-64
2021/09/07 06:47:49;;;;;;;23.55;17.90;;;22.60;99.90;;;;;;5091507;28;20024;-65
2021/09/07 06:50:15;;;;;;;22.35;17.75;;;22.60;99.90;;;;;;5091562;28;20052;-66
2021/09/07 06:52:43;;;;;;;23.75;18.00;;;22.60;99.90;;;;;;5098584;28;20317;-66
2021/09/07 06:55:09;;;;;;;23.17;18.45;;;22.60;99.90;;;;;;5090447;28;20069;-66
2021/09/07 06:57:35;;;;;;;28.75;18.88;;;22.50;99.90;;;;;;5090111;28;20107;-66
2021/09/07 07:00:03;;;;;;;24.23;18.60;;;22.50;99.90;;;;;;5070525;28;20138;-67
2021/09/07 07:02:29;;;;;;;27.05;20.45;;;22.40;99.90;;;;;;5090100;28;20129;-66
2021/09/07 07:04:55;;;;;;;31.17;22.38;;;22.40;99.90;;;;;;5089718;28;20369;-66
2021/09/07 07:07:21;;;;;;;31.42;21.08;;;22.40;99.90;;;;;;5090291;28;20462;-67
2021/09/07 07:09:46;;;;;;;27.77;21.58;;;22.30;99.90;;;;;;5089744;28;20032;-67
2021/09/07 07:12:12;;;;;;;31.05;21.92;;;22.30;99.90;;;;;;5088987;28;20032;-66
2021/09/07 07:14:38;;;;;;;28.58;21.10;;;22.30;99.90;;;;;;5089511;28;20574;-67
2021/09/07 07:17:03;;;;;;;30.33;21.65;;;22.20;99.90;;;;;;5090897;28;20031;-66
2021/09/07 07:19:29;;;;;;;30.15;21.95;;;22.20;99.90;;;;;;5091459;28;20020;-66
2021/09/07 07:21:55;;;;;;;30.13;20.38;;;22.10;99.90;;;;;;5090667;28;20055;-64
2021/09/07 07:24:20;;;;;;;30.25;19.65;;;22.10;99.90;;;;;;5091331;28;20028;-64
2021/09/07 07:26:46;;;;;;;24.58;17.60;;;22.20;99.90;;;;;;5086279;28;20483;-65
2021/09/07 07:29:12;;;;;;;24.35;17.00;;;22.20;99.90;;;;;;5091261;28;20060;-66
2021/09/07 07:31:39;;;;;;;26.77;16.77;;;22.20;99.90;;;;;;5091459;28;20039;-64
2021/09/07 07:34:05;;;;;;;23.35;17.40;;;22.20;99.90;;;;;;5084388;28;20029;-66
2021/09/07 07:36:33;;;;;;;22.83;16.67;;;22.20;99.90;;;;;;5072095;28;20150;-67
2021/09/07 07:38:59;;;;;;;24.83;16.98;;;22.20;99.90;;;;;;5076858;28;20035;-66
2021/09/07 07:41:25;;;;;;;22.95;15.68;;;22.20;99.90;;;;;;5104320;28;20054;-67
2021/09/07 07:43:50;;;;;;;19.83;14.48;;;22.20;99.90;;;;;;5111284;28;20023;-67
2021/09/07 07:46:16;;;;;;;21.58;14.52;;;22.20;99.90;;;;;;5089625;28;20024;-67
2021/09/07 07:48:42;;;;;;;19.75;14.55;;;22.20;99.90;;;;;;5087469;28;20052;-67
2021/09/07 07:51:09;;;;;;;19.17;13.35;;;22.20;99.90;;;;;;5092085;28;20028;-65
2021/09/07 07:53:35;;;;;;;17.70;12.70;;;22.20;99.90;;;;;;5111493;28;20076;-67
2021/09/07 07:56:01;;;;;;;19.02;13.40;;;22.20;99.90;;;;;;5095132;28;20032;-67
2021/09/07 07:58:27;;;;;;;18.55;12.43;;;22.20;99.90;;;;;;5095098;28;20034;-64
2021/09/07 08:00:52;;;;;;;16.38;12.45;;;22.20;99.90;;;;;;5088458;28;20029;-66
2021/09/07 08:03:18;;;;;;;14.50;11.00;;;22.20;99.90;;;;;;5081023;28;20035;-64
2021/09/07 08:05:44;;;;;;;15.45;11.82;;;22.20;99.90;;;;;;5102407;28;20021;-66
2021/09/07 08:08:10;;;;;;;14.55;10.85;;;22.30;99.90;;;;;;5094702;28;20036;-64
2021/09/07 08:10:36;;;;;;;16.90;11.85;;;22.30;99.90;;;;;;5094135;28;20052;-65
2021/09/07 08:13:01;;;;;;;15.00;10.98;;;22.30;99.90;;;;;;5091955;28;20536;-65
2021/09/07 08:15:27;;;;;;;14.65;11.23;;;22.30;99.90;;;;;;5085517;28;20115;-64
2021/09/07 08:17:53;;;;;;;15.35;10.93;;;22.20;99.90;;;;;;5094230;28;20028;-64
2021/09/07 08:20:19;;;;;;;13.65;10.73;;;22.30;99.90;;;;;;5094336;28;20050;-66
2021/09/07 08:22:44;;;;;;;14.73;10.73;;;22.30;99.90;;;;;;5083453;28;20020;-64
2021/09/07 08:25:11;;;;;;;13.88;10.18;;;22.30;99.90;;;;;;5080550;28;20036;-65
2021/09/07 08:27:37;;;;;;;13.93;11.55;;;22.30;99.90;;;;;;5094603;28;20020;-64
2021/09/07 08:30:04;;;;;;;14.63;11.27;;;22.30;99.90;;;;;;5093927;28;20032;-66
2021/09/07 08:32:30;;;;;;;14.90;10.18;;;22.30;99.90;;;;;;5074356;28;20110;-65
2021/09/07 08:34:56;;;;;;;13.88;10.77;;;22.30;99.90;;;;;;5073685;28;20032;-64
2021/09/07 08:37:21;;;;;;;16.55;10.52;;;22.40;99.90;;;;;;5075659;28;20486;-65
2021/09/07 08:39:47;;;;;;;17.25;10.90;;;22.30;99.90;;;;;;5093918;28;20020;-65
2021/09/07 08:42:14;;;;;;;13.82;10.82;;;22.40;99.90;;;;;;5093993;28;20036;-65
2021/09/07 08:44:47;;;;;;;14.25;10.38;;;22.40;99.90;;;;;;5090388;28;20040;-64
2021/09/07 08:47:19;;;;;;;11.27;9.32;;;22.40;99.90;;;;;;5087246;28;20111;-65
2021/09/07 08:49:48;;;;;;;12.38;9.70;;;22.40;99.90;;;;;;5091856;28;20036;-65
2021/09/07 08:52:15;;;;;;;13.60;9.85;;;22.40;99.90;;;;;;5093805;28;20036;-64
2021/09/07 08:54:44;;;;;;;16.52;10.85;;;22.40;99.90;;;;;;5093461;28;20464;-65
2021/09/07 08:57:10;;;;;;;14.38;10.50;;;22.40;99.90;;;;;;5093685;28;20066;-65
2021/09/07 08:59:37;;;;;;;14.00;10.05;;;22.40;99.90;;;;;;5093940;28;20048;-64
2021/09/07 09:02:14;;;;;;;16.20;10.88;;;22.40;99.90;;;;;;5093357;28;20602;-65
2021/09/07 09:04:44;;;;;;;11.88;9.65;;;22.40;99.90;;;;;;5093816;28;20016;-67
2021/09/07 09:07:23;;;;;;;14.93;10.45;;;22.50;99.90;;;;;;5093852;28;20431;-67
2021/09/07 09:09:50;;;;;;;16.02;9.93;;;22.50;99.90;;;;;;5093335;28;20069;-67
2021/09/07 09:12:26;;;;;;;14.68;10.20;;;22.50;99.90;;;;;;5093327;28;20068;-67
2021/09/07 09:14:52;;;;;;;13.70;10.13;;;22.50;99.90;;;;;;5093062;28;20028;-65
2021/09/07 09:17:17;;;;;;;15.00;10.52;;;22.50;99.90;;;;;;5091770;28;20028;-66
2021/09/07 09:19:55;;;;;;;14.48;11.05;;;22.50;99.90;;;;;;5091101;28;20024;-64
2021/09/07 09:22:54;;;;;;;14.48;10.13;;;22.50;99.90;;;;;;5093509;28;20027;-65
2021/09/07 09:25:20;;;;;;;13.32;10.75;;;22.50;99.90;;;;;;5076763;28;20103;-67
2021/09/07 09:27:57;;;;;;;11.60;9.80;;;22.50;99.90;;;;;;5072820;28;20109;-67
2021/09/07 09:30:28;;;;;;;13.50;10.93;;;22.50;99.90;;;;;;5072875;28;20020;-64
2021/09/07 09:32:54;;;;;;;13.30;9.23;;;22.60;99.90;;;;;;5072462;28;20078;-65
2021/09/07 09:35:21;;;;;;;12.65;10.30;;;22.60;99.90;;;;;;5072522;28;20074;-67
2021/09/07 09:38:00;;;;;;;13.57;10.40;;;22.60;99.90;;;;;;5072445;28;20096;-65
2021/09/07 09:40:27;;;;;;;12.20;10.15;;;22.60;99.90;;;;;;5072682;28;20032;-65
2021/09/07 09:42:53;;;;;;;14.07;10.15;;;22.60;99.90;;;;;;5072770;28;20040;-65
2021/09/07 09:45:28;;;;;;;14.55;10.23;;;22.60;99.90;;;;;;5094629;28;20016;-66
2021/09/07 09:47:55;;;;;;;14.85;10.40;;;22.60;99.90;;;;;;5092207;28;20463;-67
2021/09/07 09:50:22;;;;;;;14.30;10.48;;;22.60;99.90;;;;;;5092457;28;20379;-67
2021/09/07 09:52:48;;;;;;;13.68;10.05;;;22.60;99.90;;;;;;5092319;28;20036;-64
2021/09/07 09:55:16;;;;;;;13.63;10.18;;;22.70;99.90;;;;;;5080915;28;20024;-64
2021/09/07 09:57:42;;;;;;;12.30;10.07;;;22.70;99.90;;;;;;5071940;28;20039;-66
2021/09/07 10:00:13;;;;;;;12.02;9.32;;;22.70;99.90;;;;;;5072390;28;20040;-65
2021/09/07 10:02:40;;;;;;;13.27;9.63;;;22.70;99.90;;;;;;5072409;28;20021;-64
2021/09/07 10:05:07;;;;;;;12.90;10.00;;;22.70;99.90;;;;;;5072499;28;20147;-64
2021/09/07 10:07:33;;;;;;;18.30;10.57;;;22.70;99.90;;;;;;5086963;28;20019;-64
2021/09/07 10:09:59;;;;;;;12.20;9.98;;;22.70;99.90;;;;;;5095689;28;20036;-65
2021/09/07 10:12:33;;;;;;;13.82;10.18;;;22.70;99.90;;;;;;5092249;28;20115;-65
2021/09/07 10:15:09;;;;;;;13.75;10.05;;;22.70;99.90;;;;;;5090442;28;20028;-64
2021/09/07 10:25:45;;;;;;;13.50;10.00;;;22.80;99.90;;;;;;5095305;28;20089;-64
2021/09/07 10:28:11;;;;;;;14.10;9.60;;;22.80;99.90;;;;;;5106379;28;20111;-65
2021/09/07 10:31:11;;;;;;;11.65;9.48;;;22.80;99.90;;;;;;5112762;28;20048;-64
2021/09/07 10:33:41;;;;;;;11.20;8.90;;;22.90;99.90;;;;;;5111489;28;20024;-64
2021/09/07 10:36:11;;;;;;;12.35;8.50;;;22.90;99.90;;;;;;5096950;28;20035;-64
2021/09/07 10:38:48;;;;;;;11.30;9.23;;;22.90;99.90;;;;;;5105301;28;20036;-64
2021/09/07 10:41:35;;;;;;;10.75;8.63;;;22.90;99.90;;;;;;5091830;28;20073;-64
2021/09/07 10:44:05;;;;;;;9.82;8.32;;;22.90;99.90;;;;;;5077312;28;20036;-65
2021/09/07 10:47:00;;;;;;;11.80;8.93;;;22.90;99.90;;;;;;5092857;28;20028;-66
2021/09/07 10:49:36;;;;;;;12.68;8.90;;;22.90;99.90;;;;;;5091809;28;20024;-67
2021/09/07 10:52:12;;;;;;;9.63;8.30;;;22.90;99.90;;;;;;5092015;28;20039;-65
2021/09/07 10:54:50;;;;;;;11.88;9.00;;;23.00;99.90;;;;;;5095236;28;20032;-65
2021/09/07 10:57:34;;;;;;;10.85;8.50;;;23.00;99.90;;;;;;5091664;28;20032;-66
2021/09/07 11:00:19;;;;;;;10.90;9.05;;;23.00;99.90;;;;;;5091370;28;20074;-64
2021/09/07 11:02:54;;;;;;;10.25;8.65;;;23.00;99.90;;;;;;5092728;28;20062;-66
2021/09/07 11:05:28;;;;;;;10.40;8.75;;;23.00;99.90;;;;;;5092833;28;20091;-64
2021/09/07 11:08:05;;;;;;;12.00;8.75;;;23.10;99.90;;;;;;5090424;28;20391;-64
2021/09/07 11:10:33;;;;;;;10.57;8.27;;;23.10;99.90;;;;;;5089422;28;20020;-64
2021/09/07 11:13:07;;;;;;;11.35;8.23;;;23.00;99.90;;;;;;5090458;28;20118;-65
2021/09/07 11:15:40;;;;;;;11.15;9.05;;;23.10;99.90;;;;;;5089183;28;20020;-64
2021/09/07 11:18:14;;;;;;;9.88;8.57;;;23.10;99.90;;;;;;5091676;28;20479;-67
2021/09/07 11:20:46;;;;;;;10.18;8.65;;;23.10;99.90;;;;;;5104320;28;20032;-65
2021/09/07 11:23:16;;;;;;;11.15;9.32;;;23.20;99.90;;;;;;5093498;28;20487;-66
2021/09/07 11:25:45;;;;;;;11.45;9.15;;;23.20;99.90;;;;;;5095163;28;20021;-67
2021/09/07 11:28:12;;;;;;;10.57;8.43;;;23.20;99.90;;;;;;5092083;28;20081;-64
2021/09/07 11:30:40;;;;;;;10.93;8.88;;;23.20;99.90;;;;;;5095700;28;20085;-65
2021/09/07 11:33:22;;;;;;;11.15;8.73;;;23.20;99.90;;;;;;5099118;28;20039;-64
2021/09/07 11:35:56;;;;;;;10.48;7.93;;;23.30;99.90;;;;;;5094887;28;20035;-65
2021/09/07 11:38:48;;;;;;;10.25;8.15;;;23.30;99.90;;;;;;5095082;28;20486;-64
2021/09/07 11:41:32;;;;;;;10.27;7.78;;;23.30;99.90;;;;;;5094461;28;20070;-64
2021/09/07 11:43:57;;;;;;;10.55;8.00;;;23.30;99.90;;;;;;5094787;28;20037;-67
2021/09/07 11:46:24;;;;;;;10.32;8.30;;;23.30;99.90;;;;;;5094954;28;20036;-64
2021/09/07 11:48:52;;;;;;;9.98;8.10;;;23.30;99.90;;;;;;5095057;28;20349;-66
2021/09/07 11:51:39;;;;;;;9.98;8.20;;;23.40;99.90;;;;;;5094753;28;20471;-64
2021/09/07 11:54:07;;;;;;;11.18;7.82;;;23.40;99.90;;;;;;5094677;28;20032;-63
2021/09/07 11:56:35;;;;;;;11.57;8.48;;;23.40;99.90;;;;;;5095967;28;20055;-64
2021/09/07 11:59:19;;;;;;;10.80;8.00;;;23.40;99.90;;;;;;5094666;28;20024;-65
2021/09/07 12:01:46;;;;;;;;;;;23.40;99.90;;;;;;5096197;28;20028;-67
2021/09/07 12:04:14;;;;;;;10.20;7.82;;;23.40;99.90;;;;;;5095865;28;19954;-64
2021/09/07 12:06:47;;;;;;;10.23;7.95;;;23.50;99.90;;;;;;5106066;28;20038;-64
2021/09/07 12:09:16;;;;;;;11.60;8.48;;;23.50;99.90;;;;;;5112593;28;20059;-65
2021/09/07 12:11:49;;;;;;;9.45;7.50;;;23.50;99.90;;;;;;5114441;28;20089;-65
2021/09/07 12:14:21;;;;;;;;;;;23.50;99.90;;;;;;5115540;28;20041;-67
2021/09/07 12:16:55;;;;;;;9.52;7.47;;;23.50;99.90;;;;;;5112730;28;19929;-67
2021/09/07 12:19:32;;;;;;;10.50;8.13;;;23.60;99.90;;;;;;5101659;28;20125;-68
2021/09/07 12:22:10;;;;;;;9.05;7.80;;;23.60;99.90;;;;;;5094166;28;20103;-68
2021/09/07 12:24:37;;;;;;;8.98;7.30;;;23.60;99.90;;;;;;5094721;28;20016;-69
2021/09/07 12:27:26;;;;;;;10.00;7.93;;;23.60;99.90;;;;;;5094044;28;20032;-64
2021/09/07 12:30:30;;;;;;;11.57;8.13;;;23.70;99.90;;;;;;5095049;28;20028;-68
2021/09/07 12:33:01;;;;;;;7.82;6.93;;;23.70;99.90;;;;;;5093938;28;20060;-68
2021/09/07 12:35:52;;;;;;;9.05;7.45;;;23.70;99.90;;;;;;5094312;28;20035;-65
2021/09/07 12:38:28;;;;;;;10.13;8.15;;;23.70;99.90;;;;;;5093984;28;20405;-68
2021/09/07 12:40:58;;;;;;;10.05;7.88;;;23.70;99.90;;;;;;5094200;28;20016;-68
2021/09/07 12:43:29;;;;;;;9.55;7.40;;;23.80;99.90;;;;;;5093915;28;20028;-66
2021/09/07 12:45:57;;;;;;;9.43;7.38;;;23.80;99.90;;;;;;5105616;28;20035;-67
2021/09/07 12:48:22;;;;;;;8.07;6.80;;;23.80;99.90;;;;;;5113973;28;20054;-68
2021/09/07 12:50:49;;;;;;;8.05;7.05;;;23.80;99.90;;;;;;5107454;28;20483;-68
2021/09/07 12:53:20;;;;;;;8.75;7.40;;;23.80;99.90;;;;;;5093591;28;20039;-66